Time;durP1;ratioP1;P1;durP2;ratioP2;P2;SDS_P1;SDS_P2;PMS_P1;PMS_P2;Temp;Humidity;BMP_temperature;BMP_pressure;BME280_temperature;BME280_humidity;BME280_pressure;Samples;Min_cycle;Max_cycle;Signal;HPM_P1;HPM_P2
2023/04/20 00:01:40;;;;;;;2.10;1.55;;;12.90;99.90;;;;;;5064331;28;20044;-49
2023/04/20 00:04:07;;;;;;;1.98;1.52;;;12.60;99.90;;;;;;5079951;28;20531;-49
2023/04/20 00:06:33;;;;;;;3.55;2.13;;;12.50;99.90;;;;;;5050996;28;20040;-48
2023/04/20 00:09:00;;;;;;;2.20;1.30;;;12.50;99.90;;;;;;5075724;28;20038;-49
2023/04/20 00:11:26;;;;;;;4.40;1.48;;;12.60;99.90;;;;;;5073032;28;20038;-49
2023/04/20 00:13:52;;;;;;;1.88;1.48;;;12.70;99.90;;;;;;5079508;28;20486;-48
2023/04/20 00:16:18;;;;;;;2.60;1.40;;;;;;;;;;5071819;28;20032;-48
2023/04/20 00:18:47;;;;;;;2.15;1.48;;;12.70;99.90;;;;;;5075373;28;20028;-48
2023/04/20 00:21:13;;;;;;;3.58;2.30;;;12.70;99.90;;;;;;5040964;28;20049;-49
2023/04/20 00:23:40;;;;;;;2.03;1.75;;;12.80;99.90;;;;;;5089569;28;20490;-49
2023/04/20 00:26:06;;;;;;;2.45;1.98;;;12.70;99.90;;;;;;5057523;28;20115;-49
2023/04/20 00:28:32;;;;;;;2.50;2.20;;;12.60;99.90;;;;;;5079332;28;20117;-49
2023/04/20 00:30:58;;;;;;;4.18;2.05;;;12.50;99.90;;;;;;5045105;28;20036;-49
2023/04/20 00:33:23;;;;;;;3.05;2.15;;;12.60;99.90;;;;;;5085695;28;20028;-48
2023/04/20 00:35:49;;;;;;;1.52;1.42;;;;;;;;;;5012252;28;20039;-49
2023/04/20 00:38:16;;;;;;;2.10;1.65;;;;;;;;;;5075322;28;20028;-49
2023/04/20 00:40:47;;;;;;;1.70;1.45;;;12.60;99.90;;;;;;5081802;28;20044;-48
2023/04/20 00:43:14;;;;;;;4.40;2.05;;;12.30;99.90;;;;;;5080417;28;20039;-50
2023/04/20 00:45:40;;;;;;;2.22;1.80;;;12.40;99.90;;;;;;4995758;28;20029;-48
2023/04/20 00:48:06;;;;;;;2.10;1.77;;;12.50;99.90;;;;;;5013357;28;20033;-49
2023/04/20 00:50:33;;;;;;;2.15;1.40;;;12.50;99.90;;;;;;5018113;28;20133;-48
2023/04/20 00:53:01;;;;;;;2.25;1.83;;;12.60;99.90;;;;;;5017214;28;20034;-48
2023/04/20 00:55:28;;;;;;;2.47;2.03;;;12.50;99.90;;;;;;5020082;28;20120;-49
2023/04/20 00:57:54;;;;;;;2.42;1.60;;;12.60;99.90;;;;;;4987227;28;20102;-49
2023/04/20 01:00:21;;;;;;;1.98;1.58;;;12.60;99.90;;;;;;5019479;28;20049;-48
2023/04/20 01:02:47;;;;;;;4.55;2.35;;;12.50;99.90;;;;;;5011721;28;20053;-48
2023/04/20 01:05:13;;;;;;;3.00;1.88;;;12.50;99.90;;;;;;5010479;28;20063;-49
2023/04/20 01:07:39;;;;;;;2.50;1.80;;;12.50;99.90;;;;;;5020825;28;20115;-49
2023/04/20 01:10:06;;;;;;;1.85;1.40;;;;;;;;;;5021808;28;20034;-49
2023/04/20 01:12:32;;;;;;;2.55;1.80;;;12.50;99.90;;;;;;4970657;28;20031;-49
2023/04/20 01:14:57;;;;;;;2.42;1.88;;;12.40;99.90;;;;;;4975569;28;20390;-49
2023/04/20 01:17:23;;;;;;;4.43;2.03;;;12.50;99.90;;;;;;5047827;28;20080;-49
2023/04/20 01:19:49;;;;;;;2.72;1.73;;;12.50;99.90;;;;;;5004720;28;20040;-49
2023/04/20 01:22:20;;;;;;;1.60;1.50;;;12.40;99.90;;;;;;4998490;28;20056;-48
2023/04/20 01:24:46;;;;;;;2.63;2.10;;;12.30;99.90;;;;;;5058467;28;20032;-51
2023/04/20 01:27:13;;;;;;;3.60;1.88;;;12.30;99.90;;;;;;5060369;28;20052;-49
2023/04/20 01:29:39;;;;;;;2.70;2.13;;;12.30;99.90;;;;;;5052048;28;20036;-48
2023/04/20 01:32:05;;;;;;;4.03;2.25;;;12.30;99.90;;;;;;5057436;28;20475;-49
2023/04/20 01:34:31;;;;;;;4.35;2.10;;;12.30;99.90;;;;;;5051763;28;21183;-49
2023/04/20 01:36:57;;;;;;;3.08;2.13;;;12.30;99.90;;;;;;5021394;28;20045;-48
2023/04/20 01:39:23;;;;;;;1.92;1.65;;;12.40;99.90;;;;;;5013309;28;20036;-50
2023/04/20 01:41:49;;;;;;;2.00;1.55;;;12.40;99.90;;;;;;5007115;28;20392;-59
2023/04/20 01:44:15;;;;;;;2.47;1.83;;;12.30;99.90;;;;;;5042537;28;20044;-50
2023/04/20 01:46:41;;;;;;;3.40;2.05;;;12.40;99.90;;;;;;5052067;28;20098;-51
2023/04/20 01:49:07;;;;;;;3.15;1.90;;;12.40;99.90;;;;;;5051025;28;20082;-49
2023/04/20 01:51:36;;;;;;;3.60;2.03;;;12.30;99.90;;;;;;5032485;28;20075;-49
2023/04/20 01:54:02;;;;;;;3.85;1.92;;;12.10;99.90;;;;;;5079026;28;20024;-48
2023/04/20 01:56:28;;;;;;;3.38;1.70;;;12.00;99.90;;;;;;5016541;28;20136;-48
2023/04/20 01:58:54;;;;;;;4.10;2.08;;;12.00;99.90;;;;;;5021022;28;20604;-47
2023/04/20 02:01:20;;;;;;;2.33;1.85;;;12.00;99.90;;;;;;4973768;28;20441;-48
2023/04/20 02:03:47;;;;;;;6.93;2.03;;;12.00;99.90;;;;;;5016032;28;20030;-49
2023/04/20 02:06:13;;;;;;;2.72;2.25;;;11.90;99.90;;;;;;5015649;28;20173;-48
2023/04/20 02:08:39;;;;;;;3.08;1.95;;;12.00;99.90;;;;;;5020411;28;20037;-48
2023/04/20 02:11:05;;;;;;;3.53;1.83;;;12.10;99.90;;;;;;5014249;28;20073;-49
2023/04/20 02:13:31;;;;;;;2.55;2.08;;;12.10;99.90;;;;;;5000170;28;20182;-48
2023/04/20 02:15:56;;;;;;;3.80;2.53;;;12.00;99.90;;;;;;5013675;28;20503;-48
2023/04/20 02:18:23;;;;;;;2.97;2.20;;;12.00;99.90;;;;;;5017216;28;20061;-50
2023/04/20 02:20:49;;;;;;;2.78;2.00;;;12.10;99.90;;;;;;5016112;28;20081;-48
2023/04/20 02:23:15;;;;;;;2.83;1.70;;;12.10;99.90;;;;;;5015163;28;20485;-49
2023/04/20 02:25:41;;;;;;;3.30;2.17;;;12.00;99.90;;;;;;4970338;28;20044;-48
2023/04/20 02:28:07;;;;;;;2.55;1.95;;;12.10;99.90;;;;;;5058311;28;20518;-49
2023/04/20 02:30:32;;;;;;;2.88;2.10;;;12.00;99.90;;;;;;5076708;28;20032;-49
2023/04/20 02:32:58;;;;;;;3.10;2.00;;;12.00;99.90;;;;;;5073247;28;20032;-48
2023/04/20 02:35:25;;;;;;;3.40;2.40;;;12.00;99.90;;;;;;5073565;28;20020;-49
2023/04/20 02:37:51;;;;;;;3.35;2.33;;;11.90;99.90;;;;;;5025139;28;20044;-49
2023/04/20 02:40:16;;;;;;;2.97;2.00;;;11.90;99.90;;;;;;5072385;28;20490;-48
2023/04/20 02:42:42;;;;;;;2.67;1.67;;;11.90;99.90;;;;;;5082886;28;20036;-50
2023/04/20 02:45:09;;;;;;;1.88;1.70;;;11.90;99.90;;;;;;5075505;28;20074;-48
2023/04/20 02:47:34;;;;;;;3.55;1.80;;;11.90;99.90;;;;;;5060852;28;20037;-49
2023/04/20 02:50:00;;;;;;;3.85;2.15;;;11.90;99.90;;;;;;5074556;28;20052;-50
2023/04/20 02:52:26;;;;;;;2.53;1.80;;;11.90;99.90;;;;;;5081382;28;20432;-50
2023/04/20 02:54:52;;;;;;;2.60;1.90;;;11.80;99.90;;;;;;5076819;28;20349;-49
2023/04/20 02:57:18;;;;;;;4.35;2.92;;;;;;;;;;5080219;28;20032;-49
2023/04/20 02:59:43;;;;;;;3.08;1.77;;;11.80;99.90;;;;;;5071644;28;20029;-49
2023/04/20 03:02:09;;;;;;;3.92;2.80;;;11.70;99.90;;;;;;5076916;28;20527;-48
2023/04/20 03:04:35;;;;;;;2.30;1.98;;;11.70;99.90;;;;;;5044249;28;20044;-49
2023/04/20 03:07:01;;;;;;;4.53;2.42;;;11.70;99.90;;;;;;5085004;28;20154;-48
2023/04/20 03:09:27;;;;;;;3.55;2.47;;;11.80;99.90;;;;;;5027977;28;20529;-47
2023/04/20 03:11:53;;;;;;;2.60;2.08;;;11.80;99.90;;;;;;5080701;28;20039;-49
2023/04/20 03:14:19;;;;;;;4.57;2.25;;;11.90;99.90;;;;;;5082362;28;20533;-48
2023/04/20 03:16:45;;;;;;;3.75;2.13;;;11.90;99.90;;;;;;5077417;28;20032;-48
2023/04/20 03:19:10;;;;;;;2.40;1.88;;;11.90;99.90;;;;;;5080556;28;20091;-49
2023/04/20 03:21:36;;;;;;;5.28;3.13;;;11.90;99.90;;;;;;5068689;28;20104;-49
2023/04/20 03:24:02;;;;;;;4.53;2.10;;;11.80;99.90;;;;;;5074777;28;20021;-48
2023/04/20 03:26:28;;;;;;;4.22;2.45;;;11.90;99.90;;;;;;5094339;28;20107;-49
2023/04/20 03:28:54;;;;;;;4.35;2.90;;;;;;;;;;5042807;28;20115;-48
2023/04/20 03:31:20;;;;;;;3.28;2.22;;;11.80;99.90;;;;;;5075365;28;20063;-49
2023/04/20 03:33:45;;;;;;;4.78;3.17;;;11.70;99.90;;;;;;5081305;28;20029;-49
2023/04/20 03:36:12;;;;;;;3.70;2.88;;;11.60;99.90;;;;;;5034242;28;20051;-48
2023/04/20 03:38:37;;;;;;;4.00;3.00;;;11.60;99.90;;;;;;5042128;28;20039;-49
2023/04/20 03:41:04;;;;;;;3.60;2.42;;;11.70;99.90;;;;;;5073237;28;20426;-48
2023/04/20 03:43:30;;;;;;;4.20;2.80;;;11.60;99.90;;;;;;5075218;28;20526;-49
2023/04/20 03:45:55;;;;;;;3.97;2.72;;;11.60;99.90;;;;;;5079615;28;20031;-49
2023/04/20 03:48:21;;;;;;;2.90;2.42;;;11.60;99.90;;;;;;5068027;28;20021;-50
2023/04/20 03:50:47;;;;;;;4.05;2.55;;;11.60;99.90;;;;;;5083907;28;20127;-48
2023/04/20 03:53:12;;;;;;;4.30;2.90;;;11.60;99.90;;;;;;5076378;28;20538;-50
2023/04/20 03:55:38;;;;;;;6.50;2.90;;;11.70;99.90;;;;;;5075502;28;20168;-49
2023/04/20 03:58:05;;;;;;;4.53;2.75;;;11.70;99.90;;;;;;5041463;28;20086;-50
2023/04/20 04:00:31;;;;;;;3.63;2.63;;;11.70;99.90;;;;;;5069587;28;20468;-48
2023/04/20 04:02:57;;;;;;;4.57;2.78;;;11.70;99.90;;;;;;5048116;28;20044;-50
2023/04/20 04:05:24;;;;;;;5.07;2.90;;;11.60;99.90;;;;;;5047847;28;20558;-49
2023/04/20 04:07:50;;;;;;;4.00;2.50;;;11.60;99.90;;;;;;5073918;28;20510;-48
2023/04/20 04:10:17;;;;;;;2.92;2.35;;;11.50;99.90;;;;;;5086525;28;20031;-48
2023/04/20 04:12:44;;;;;;;3.15;2.75;;;11.40;99.90;;;;;;5084832;28;20391;-49
2023/04/20 04:15:11;;;;;;;4.47;3.00;;;11.40;99.90;;;;;;5080913;28;20036;-48
2023/04/20 04:17:37;;;;;;;5.07;3.47;;;11.40;99.90;;;;;;5085335;28;20024;-49
2023/04/20 04:20:06;;;;;;;3.35;2.25;;;11.40;99.90;;;;;;5080767;28;20036;-48
2023/04/20 04:22:33;;;;;;;3.83;2.53;;;;;;;;;;5027220;28;20052;-49
2023/04/20 04:24:58;;;;;;;4.53;2.60;;;11.60;99.90;;;;;;5024201;28;20145;-49
2023/04/20 04:27:24;;;;;;;5.03;3.10;;;11.40;99.90;;;;;;5041403;28;20483;-48
2023/04/20 04:29:50;;;;;;;4.13;2.65;;;11.40;99.90;;;;;;5014268;28;20115;-48
2023/04/20 04:32:16;;;;;;;3.67;2.47;;;11.40;99.90;;;;;;5039544;28;20388;-49
2023/04/20 04:34:44;;;;;;;3.72;3.00;;;11.30;99.90;;;;;;5070012;28;20109;-49
2023/04/20 04:37:11;;;;;;;6.15;3.17;;;11.30;99.90;;;;;;5070119;28;20031;-49
2023/04/20 04:39:38;;;;;;;4.13;2.20;;;11.30;99.90;;;;;;5040232;28;20117;-49
2023/04/20 04:42:04;;;;;;;3.33;2.75;;;11.40;99.90;;;;;;5072584;28;20055;-48
2023/04/20 04:44:30;;;;;;;3.22;2.08;;;11.30;99.90;;;;;;5084082;28;20043;-48
2023/04/20 04:46:57;;;;;;;5.93;3.67;;;11.30;99.90;;;;;;5080539;28;20033;-48
2023/04/20 04:49:25;;;;;;;7.00;3.28;;;11.30;99.90;;;;;;5078248;28;20504;-49
2023/04/20 04:51:51;;;;;;;3.80;3.03;;;11.40;99.90;;;;;;5083625;28;20032;-48
2023/04/20 04:54:17;;;;;;;7.35;3.63;;;11.50;99.90;;;;;;5071264;28;20032;-48
2023/04/20 04:56:42;;;;;;;6.35;3.35;;;11.40;99.90;;;;;;5055033;28;20044;-50
2023/04/20 04:59:08;;;;;;;5.63;3.58;;;11.40;99.90;;;;;;5034486;28;20037;-48
2023/04/20 05:01:34;;;;;;;7.15;3.92;;;11.30;99.90;;;;;;5070344;28;20110;-48
2023/04/20 05:04:00;;;;;;;7.90;4.30;;;11.40;99.90;;;;;;5072698;28;20037;-48
2023/04/20 05:06:26;;;;;;;4.55;3.50;;;11.40;99.90;;;;;;5074087;28;20383;-48
2023/04/20 05:08:51;;;;;;;7.78;5.07;;;11.40;99.90;;;;;;5039151;28;20036;-47
2023/04/20 05:11:17;;;;;;;9.27;4.47;;;11.30;99.90;;;;;;5048821;28;20045;-48
2023/04/20 05:13:43;;;;;;;8.02;3.72;;;11.20;99.90;;;;;;5034061;28;20040;-48
2023/04/20 05:16:08;;;;;;;6.22;3.97;;;11.20;99.90;;;;;;5074973;28;20059;-48
2023/04/20 05:18:34;;;;;;;8.80;5.05;;;;;;;;;;5039361;28;20075;-50
2023/04/20 05:21:01;;;;;;;6.22;4.00;;;11.30;99.90;;;;;;5070065;28;20123;-48
2023/04/20 05:23:26;;;;;;;5.53;3.80;;;11.30;99.90;;;;;;5074791;28;20553;-49
2023/04/20 05:25:52;;;;;;;8.93;3.85;;;11.20;99.90;;;;;;5076427;28;20024;-49
2023/04/20 05:28:18;;;;;;;7.53;4.13;;;11.20;99.90;;;;;;5075792;28;20054;-49
2023/04/20 05:30:43;;;;;;;4.00;3.28;;;11.30;99.90;;;;;;5078905;28;20024;-49
2023/04/20 05:33:09;;;;;;;3.75;2.67;;;11.50;99.90;;;;;;5040510;28;20044;-49
2023/04/20 05:35:35;;;;;;;2.90;2.45;;;11.40;99.90;;;;;;5065025;28;20056;-50
2023/04/20 05:38:04;;;;;;;5.38;4.03;;;11.20;99.90;;;;;;5074065;28;20035;-48
2023/04/20 05:40:31;;;;;;;3.40;2.03;;;11.40;99.90;;;;;;5064334;28;20040;-49
2023/04/20 05:42:56;;;;;;;5.13;3.88;;;11.30;99.90;;;;;;5066773;28;20024;-48
2023/04/20 05:45:22;;;;;;;4.57;3.65;;;11.30;99.90;;;;;;5070225;28;20035;-49
2023/04/20 05:47:55;;;;;;;5.95;3.88;;;11.60;99.90;;;;;;5077870;28;20028;-49
2023/04/20 05:50:24;;;;;;;2.22;1.80;;;11.70;99.90;;;;;;5055408;28;20507;-50
2023/04/20 05:52:50;;;;;;;4.63;2.92;;;11.50;99.90;;;;;;5073546;28;20031;-49
2023/04/20 05:55:17;;;;;;;6.05;4.15;;;11.70;99.90;;;;;;5033500;28;20492;-49
2023/04/20 05:57:43;;;;;;;5.47;4.32;;;11.80;99.90;;;;;;5079925;28;20173;-51
2023/04/20 06:00:13;;;;;;;2.72;2.40;;;12.00;99.90;;;;;;5086257;28;20495;-62
2023/04/20 06:02:39;;;;;;;1.17;1.13;;;11.80;99.90;;;;;;4996919;28;20115;-59
2023/04/20 06:05:05;;;;;;;2.75;2.55;;;11.70;99.90;;;;;;5086070;28;20030;-49
2023/04/20 06:07:31;;;;;;;6.10;4.13;;;11.80;99.90;;;;;;5074549;28;20025;-49
2023/04/20 06:09:59;;;;;;;4.85;3.20;;;12.10;99.90;;;;;;5086088;28;20024;-49
2023/04/20 06:12:25;;;;;;;6.40;3.70;;;12.20;99.90;;;;;;5074557;28;20071;-49
2023/04/20 06:14:51;;;;;;;6.88;4.00;;;12.30;99.90;;;;;;5078595;28;20059;-49
2023/04/20 06:17:17;;;;;;;5.53;3.78;;;12.40;99.90;;;;;;5074742;28;20428;-49
2023/04/20 06:19:42;;;;;;;6.50;4.40;;;12.50;99.90;;;;;;5030397;28;20036;-49
2023/04/20 06:22:08;;;;;;;3.42;2.60;;;12.60;99.90;;;;;;5079352;28;20031;-49
2023/04/20 06:24:35;;;;;;;6.25;4.05;;;12.70;99.90;;;;;;5051222;28;20052;-49
2023/04/20 06:27:01;;;;;;;5.43;3.20;;;12.80;99.90;;;;;;5075852;28;20062;-49
2023/04/20 06:29:27;;;;;;;7.70;3.53;;;12.70;99.90;;;;;;5031918;28;20091;-49
2023/04/20 06:31:53;;;;;;;7.22;4.28;;;12.70;99.90;;;;;;5076382;28;20047;-49
2023/04/20 06:34:19;;;;;;;8.70;4.95;;;13.00;99.90;;;;;;5076349;28;20123;-49
2023/04/20 06:36:45;;;;;;;5.80;3.60;;;13.00;99.90;;;;;;5046009;28;20115;-48
2023/04/20 06:39:11;;;;;;;6.38;4.18;;;13.00;99.90;;;;;;5042185;28;20070;-49
2023/04/20 06:41:37;;;;;;;3.15;2.05;;;12.90;99.90;;;;;;5072509;28;20515;-49
2023/04/20 06:44:04;;;;;;;5.50;4.10;;;12.90;99.90;;;;;;5070052;28;20021;-49
2023/04/20 06:46:30;;;;;;;3.75;2.83;;;12.80;99.90;;;;;;5082857;28;20040;-49
2023/04/20 06:48:56;;;;;;;6.15;4.28;;;12.90;99.90;;;;;;5074621;28;20025;-49
2023/04/20 06:51:21;;;;;;;3.75;2.35;;;13.20;99.90;;;;;;5067379;28;20033;-49
2023/04/20 06:53:47;;;;;;;7.65;4.30;;;13.20;99.90;;;;;;5044991;28;20040;-49
2023/04/20 06:56:13;;;;;;;6.50;3.80;;;13.50;99.90;;;;;;5033534;28;20091;-49
2023/04/20 06:58:39;;;;;;;6.72;4.45;;;;;;;;;;5073322;28;20032;-49
2023/04/20 07:01:05;;;;;;;4.18;3.28;;;;;;;;;;5010156;28;20493;-50
2023/04/20 07:03:31;;;;;;;6.82;4.13;;;;;;;;;;5072422;28;20076;-50
2023/04/20 07:05:57;;;;;;;6.10;4.10;;;;;;;;;;5065659;28;20475;-52
2023/04/20 07:08:23;;;;;;;6.45;4.40;;;14.10;99.90;;;;;;5068335;28;20025;-52
2023/04/20 07:10:48;;;;;;;2.83;2.17;;;14.10;99.90;;;;;;5067329;28;20800;-48
2023/04/20 07:13:15;;;;;;;6.05;4.13;;;14.00;99.90;;;;;;5068362;28;20031;-51
2023/04/20 07:15:42;;;;;;;5.68;3.65;;;14.00;99.90;;;;;;5044193;28;20033;-51
2023/04/20 07:18:08;;;;;;;5.82;3.95;;;14.10;99.90;;;;;;5045604;28;20044;-51
2023/04/20 07:20:33;;;;;;;4.15;2.42;;;14.20;99.90;;;;;;5078549;28;20035;-52
2023/04/20 07:22:59;;;;;;;5.45;3.85;;;14.20;99.90;;;;;;5031518;28;20033;-51
2023/04/20 07:25:25;;;;;;;6.03;4.07;;;14.40;99.90;;;;;;5079161;28;20036;-51
2023/04/20 07:27:51;;;;;;;6.32;4.20;;;;;;;;;;5047294;28;20032;-47
2023/04/20 07:30:17;;;;;;;6.72;4.50;;;;;;;;;;5065346;28;20021;-48
2023/04/20 07:32:43;;;;;;;8.15;3.25;;;14.80;99.90;;;;;;5033651;28;20047;-51
2023/04/20 07:35:09;;;;;;;4.90;4.15;;;;;;;;;;5076242;28;20095;-46
2023/04/20 07:37:35;;;;;;;6.07;3.83;;;15.10;99.90;;;;;;5068484;28;20025;-54
2023/04/20 07:40:01;;;;;;;4.60;3.40;;;15.30;99.90;;;;;;5084398;28;20024;-50
2023/04/20 07:42:27;;;;;;;7.72;4.38;;;;;;;;;;5042922;28;20044;-47
2023/04/20 07:44:53;;;;;;;5.85;4.53;;;15.50;99.90;;;;;;5046949;28;20033;-56
2023/04/20 07:47:19;;;;;;;8.88;4.70;;;15.60;99.90;;;;;;5062500;28;20048;-50
2023/04/20 07:49:45;;;;;;;8.68;4.47;;;;;;;;;;5047854;28;20040;-52
2023/04/20 07:52:11;;;;;;;5.13;3.78;;;;;;;;;;5026108;28;20041;-50
2023/04/20 07:54:38;;;;;;;6.47;4.72;;;;;;;;;;5061867;28;20410;-51
2023/04/20 07:57:04;;;;;;;6.50;4.47;;;;;;;;;;5057024;28;20499;-49
2023/04/20 07:59:30;;;;;;;6.65;4.18;;;16.10;99.90;;;;;;5025135;28;20098;-49
2023/04/20 08:02:00;;;;;;;6.70;4.57;;;;;;;;;;5056988;28;20464;-51
2023/04/20 08:04:27;;;;;;;5.93;4.18;;;;;;;;;;5061579;28;20104;-49
2023/04/20 08:06:52;;;;;;;7.47;4.50;;;16.50;99.90;;;;;;5049523;28;20488;-49
2023/04/20 08:09:19;;;;;;;7.20;4.32;;;;;;;;;;5055491;28;20116;-50
2023/04/20 08:11:45;;;;;;;6.13;3.80;;;;;;;;;;5055980;28;20039;-49
2023/04/20 08:14:12;;;;;;;6.13;4.65;;;17.20;99.90;;;;;;5036861;28;20040;-49
2023/04/20 08:16:37;;;;;;;7.25;4.03;;;17.20;99.90;;;;;;5024684;28;20369;-49
2023/04/20 08:19:08;;;;;;;7.10;4.18;;;17.20;99.90;;;;;;5062388;28;20027;-49
2023/04/20 08:21:38;;;;;;;7.38;4.45;;;17.60;99.90;;;;;;5056705;28;20419;-49
2023/04/20 08:24:05;;;;;;;6.82;4.68;;;17.60;99.90;;;;;;5022706;28;20036;-49
2023/04/20 08:26:31;;;;;;;5.65;4.10;;;17.90;99.90;;;;;;5062353;28;20480;-50
2023/04/20 08:28:59;;;;;;;6.47;3.80;;;17.90;99.90;;;;;;5021773;28;20472;-50
2023/04/20 08:31:24;;;;;;;7.05;3.83;;;18.00;99.90;;;;;;5056563;28;20120;-49
2023/04/20 08:33:50;;;;;;;6.18;4.07;;;18.20;99.90;;;;;;5066836;28;20111;-50
2023/04/20 08:36:16;;;;;;;4.38;3.22;;;18.40;99.90;;;;;;5054830;28;20060;-50
2023/04/20 08:38:42;;;;;;;5.30;3.53;;;18.40;99.90;;;;;;5062684;28;20032;-48
2023/04/20 08:41:10;;;;;;;7.22;4.55;;;;;;;;;;5065438;28;20037;-50
2023/04/20 08:43:36;;;;;;;5.28;3.40;;;;;;;;;;5059243;28;20028;-49
2023/04/20 08:46:02;;;;;;;2.90;2.08;;;;;;;;;;5065074;28;20028;-49
2023/04/20 08:48:35;;;;;;;7.95;3.72;;;;;;;;;;4991385;28;20123;-48
2023/04/20 08:51:02;;;;;;;5.72;4.30;;;;;;;;;;5070969;28;20480;-49
2023/04/20 08:53:29;;;;;;;4.30;3.17;;;19.20;99.90;;;;;;5077588;28;20103;-49
2023/04/20 08:55:56;;;;;;;5.85;3.22;;;19.20;99.90;;;;;;5072091;28;20463;-49
2023/04/20 08:58:24;;;;;;;5.13;3.53;;;19.40;99.90;;;;;;4991754;28;20062;-49
2023/04/20 09:00:50;;;;;;;6.78;4.22;;;19.40;99.90;;;;;;5037319;28;20037;-49
2023/04/20 09:03:16;;;;;;;6.50;3.75;;;19.30;99.90;;;;;;5039065;28;20094;-49
2023/04/20 09:05:43;;;;;;;6.18;3.95;;;19.30;99.90;;;;;;5028262;28;20040;-47
2023/04/20 09:08:09;;;;;;;4.07;3.10;;;19.40;99.90;;;;;;5033961;28;20042;-47
2023/04/20 09:10:42;;;;;;;4.75;3.05;;;19.40;99.90;;;;;;5015324;28;20124;-47
2023/04/20 09:13:28;;;;;;;4.10;2.58;;;19.50;99.90;;;;;;5030852;28;20100;-48
2023/04/20 09:15:54;;;;;;;6.22;3.38;;;19.40;99.90;;;;;;5015937;28;20087;-47
2023/04/20 09:18:21;;;;;;;4.80;2.95;;;19.80;99.90;;;;;;5022441;28;20081;-47
2023/04/20 09:20:46;;;;;;;5.35;3.22;;;19.80;99.90;;;;;;5022421;28;20122;-48
2023/04/20 09:23:13;;;;;;;5.90;2.58;;;19.80;99.90;;;;;;5031424;28;20480;-47
2023/04/20 09:25:40;;;;;;;3.55;2.85;;;19.80;99.90;;;;;;5005856;28;20051;-46
2023/04/20 09:28:06;;;;;;;3.80;2.13;;;;;;;;;;5016206;28;20034;-47
2023/04/20 09:30:41;;;;;;;4.97;3.13;;;;;;;;;;5079366;28;20123;-48
2023/04/20 09:33:09;;;;;;;3.70;2.45;;;20.30;99.90;;;;;;5074497;28;20032;-49
2023/04/20 09:35:37;;;;;;;3.90;2.60;;;;;;;;;;5069827;28;20115;-49
2023/04/20 09:38:03;;;;;;;6.57;2.90;;;21.10;99.90;;;;;;5020067;28;20480;-49
2023/04/20 09:40:29;;;;;;;5.68;2.63;;;;;;;;;;5076464;28;20067;-48
2023/04/20 09:43:01;;;;;;;4.85;2.97;;;21.60;99.90;;;;;;5074037;28;20036;-47
2023/04/20 09:45:28;;;;;;;3.15;2.50;;;;;;;;;;5048128;28;20086;-49
2023/04/20 09:47:55;;;;;;;4.43;2.70;;;;;;;;;;5076169;28;20035;-50
2023/04/20 09:50:21;;;;;;;4.65;3.10;;;21.40;99.90;;;;;;4966391;28;20490;-49
2023/04/20 09:52:48;;;;;;;3.40;2.45;;;21.50;99.90;;;;;;5007187;28;20034;-49
2023/04/20 09:55:14;;;;;;;3.58;3.17;;;21.80;99.90;;;;;;4987929;28;20042;-50
2023/04/20 09:57:40;;;;;;;2.88;2.25;;;;;;;;;;5019322;28;20033;-49
2023/04/20 10:00:09;;;;;;;5.18;2.90;;;22.30;99.90;;;;;;5016100;28;20077;-49
2023/04/20 10:02:35;;;;;;;4.63;2.88;;;21.70;99.90;;;;;;5013632;28;20099;-49
2023/04/20 10:05:02;;;;;;;5.15;3.03;;;21.30;99.90;;;;;;5016737;28;20038;-49
2023/04/20 10:07:30;;;;;;;5.82;2.92;;;;;;;;;;5012259;28;20037;-50
2023/04/20 10:10:10;;;;;;;5.18;3.00;;;;;;;;;;5022972;28;20063;-49
2023/04/20 10:12:52;;;;;;;2.55;1.85;;;;;;;;;;5011457;28;20021;-49
2023/04/20 10:15:18;;;;;;;;;;;23.30;99.90;;;;;;5014289;28;20045;-49
2023/04/20 10:17:44;;;;;;;4.90;2.90;;;23.10;99.90;;;;;;5018257;28;20360;-50
2023/04/20 10:20:23;;;;;;;4.70;2.90;;;;;;;;;;5013078;28;20038;-50
2023/04/20 10:22:50;;;;;;;4.43;3.10;;;;;;;;;;5078615;28;20036;-50
2023/04/20 10:25:19;;;;;;;4.00;2.42;;;24.30;99.90;;;;;;5076018;28;20028;-49
2023/04/20 10:27:55;;;;;;;4.40;3.00;;;;;;;;;;5078673;28;20024;-49
2023/04/20 10:30:22;;;;;;;3.72;2.30;;;25.10;99.70;;;;;;5071608;28;20479;-49
2023/04/20 10:32:48;;;;;;;3.45;2.67;;;;;;;;;;5074490;28;20035;-49
2023/04/20 10:35:15;;;;;;;3.70;2.67;;;22.70;99.60;;;;;;5077273;28;20040;-49
2023/04/20 10:37:50;;;;;;;4.07;2.35;;;22.90;99.60;;;;;;5072608;28;20036;-49
2023/04/20 10:40:24;;;;;;;4.50;3.00;;;22.10;99.30;;;;;;5072263;28;20040;-49
2023/04/20 10:42:50;;;;;;;3.35;2.22;;;;;;;;;;5068708;28;20135;-49
2023/04/20 10:45:15;;;;;;;3.15;2.70;;;23.50;99.90;;;;;;5028406;28;20064;-50
2023/04/20 10:47:43;;;;;;;3.05;2.25;;;23.50;99.90;;;;;;5038488;28;20067;-50
2023/04/20 10:50:09;;;;;;;4.50;2.70;;;22.90;99.00;;;;;;5073419;28;20054;-50
2023/04/20 10:52:37;;;;;;;4.43;2.75;;;23.00;99.10;;;;;;5088202;28;20038;-49
2023/04/20 10:55:03;;;;;;;5.05;2.15;;;22.80;98.90;;;;;;5040663;28;20049;-49
2023/04/20 10:57:29;;;;;;;4.53;2.75;;;21.90;98.60;;;;;;5019950;28;20055;-50
2023/04/20 10:59:55;;;;;;;5.05;2.80;;;22.90;99.60;;;;;;5068991;28;20029;-50
2023/04/20 11:02:21;;;;;;;5.35;2.10;;;22.90;98.50;;;;;;5068043;28;20503;-50
2023/04/20 11:04:47;;;;;;;3.85;2.47;;;22.50;98.30;;;;;;5077782;28;20020;-50
2023/04/20 11:07:12;;;;;;;4.32;2.60;;;21.90;98.50;;;;;;5082176;28;20093;-49
2023/04/20 11:09:39;;;;;;;3.67;2.80;;;21.70;98.20;;;;;;5084927;28;20035;-50
2023/04/20 11:12:10;;;;;;;3.88;2.58;;;22.00;98.70;;;;;;5076787;28;20024;-49
2023/04/20 11:14:39;;;;;;;3.38;2.42;;;21.90;98.30;;;;;;5079910;28;20025;-50
2023/04/20 11:17:05;;;;;;;4.03;2.83;;;22.10;99.20;;;;;;5070243;28;20044;-50
2023/04/20 11:19:35;;;;;;;3.58;2.80;;;21.40;99.90;;;;;;5057342;28;20055;-49
2023/04/20 11:22:04;;;;;;;3.60;2.67;;;21.20;99.90;;;;;;5083594;28;20050;-49
2023/04/20 11:24:32;;;;;;;5.20;2.60;;;21.00;99.90;;;;;;5084413;28;20039;-49
2023/04/20 11:27:00;;;;;;;4.07;2.63;;;21.10;99.90;;;;;;5077713;28;20025;-50
2023/04/20 11:29:44;;;;;;;4.93;2.17;;;21.10;99.90;;;;;;5073008;28;20393;-50
2023/04/20 11:32:10;;;;;;;3.22;2.22;;;21.60;99.90;;;;;;5021844;28;20045;-49
2023/04/20 11:34:38;;;;;;;3.95;2.60;;;21.90;99.90;;;;;;5082838;28;20028;-50
2023/04/20 11:37:12;;;;;;;3.70;2.40;;;22.30;99.60;;;;;;5077756;28;20363;-50
2023/04/20 11:39:38;;;;;;;3.00;2.33;;;22.70;99.30;;;;;;5076151;28;20031;-49
2023/04/20 11:42:05;;;;;;;3.95;2.40;;;;;;;;;;5076239;28;20045;-50
2023/04/20 11:44:31;;;;;;;2.83;2.25;;;23.20;98.90;;;;;;5069558;28;20116;-50
2023/04/20 11:46:57;;;;;;;2.03;1.65;;;22.80;97.90;;;;;;5055604;28;20036;-50
2023/04/20 11:49:25;;;;;;;2.75;1.58;;;21.70;98.20;;;;;;5081497;28;20492;-50
2023/04/20 11:51:51;;;;;;;1.85;1.40;;;20.90;97.80;;;;;;5075543;28;20028;-50
2023/04/20 11:54:21;;;;;;;2.58;1.25;;;;;;;;;;5068076;28;20093;-51
2023/04/20 11:56:47;;;;;;;1.38;1.27;;;;;;;;;;5082873;28;20024;-49
2023/04/20 11:59:15;;;;;;;2.28;1.85;;;18.60;99.90;;;;;;5079786;28;20033;-49
2023/04/20 12:01:41;;;;;;;2.35;1.98;;;17.60;99.90;;;;;;5078798;28;20510;-49
2023/04/20 12:04:06;;;;;;;2.70;1.67;;;16.80;99.90;;;;;;5082419;28;20031;-49
2023/04/20 12:06:33;;;;;;;1.85;1.13;;;16.50;99.90;;;;;;5078230;28;20527;-49
2023/04/20 12:08:59;;;;;;;1.38;1.27;;;16.40;99.90;;;;;;5083594;28;20027;-49
2023/04/20 12:11:25;;;;;;;3.95;1.40;;;16.30;99.90;;;;;;5082579;28;20383;-49
2023/04/20 12:13:52;;;;;;;2.20;1.10;;;16.30;99.90;;;;;;5072326;28;20036;-49
2023/04/20 12:16:18;;;;;;;1.25;1.15;;;16.10;99.90;;;;;;5074023;28;20464;-49
2023/04/20 12:18:43;;;;;;;1.83;1.30;;;16.20;99.90;;;;;;5077148;28;20098;-50
2023/04/20 12:21:09;;;;;;;1.45;1.30;;;16.30;99.90;;;;;;5045444;28;20096;-49
2023/04/20 12:23:38;;;;;;;0.85;0.85;;;16.30;99.90;;;;;;5081400;28;20543;-49
2023/04/20 12:26:04;;;;;;;0.70;0.70;;;16.40;99.90;;;;;;5077025;28;20033;-49
2023/04/20 12:28:31;;;;;;;1.30;0.80;;;16.40;99.90;;;;;;5054950;28;20050;-49
2023/04/20 12:30:57;;;;;;;1.38;0.93;;;16.40;99.90;;;;;;5075157;28;20021;-49
2023/04/20 12:33:23;;;;;;;1.20;0.93;;;16.50;99.90;;;;;;5073179;28;20081;-49
2023/04/20 12:35:49;;;;;;;1.73;0.93;;;16.60;99.90;;;;;;5077177;28;20075;-49
2023/04/20 12:38:14;;;;;;;5.30;1.35;;;16.60;99.90;;;;;;5070819;28;20064;-50
2023/04/20 12:40:40;;;;;;;1.08;0.90;;;16.80;99.90;;;;;;5076761;28;20028;-50
2023/04/20 12:43:06;;;;;;;1.13;1.00;;;16.80;99.90;;;;;;5072265;28;20101;-50
2023/04/20 12:45:32;;;;;;;1.00;0.70;;;16.90;99.90;;;;;;5072832;28;20039;-51
2023/04/20 12:47:58;;;;;;;0.77;0.77;;;17.00;99.90;;;;;;5041768;28;20047;-50
2023/04/20 12:50:24;;;;;;;3.63;1.70;;;17.10;99.90;;;;;;5041927;28;20139;-50
2023/04/20 12:52:57;;;;;;;5.18;2.63;;;17.20;99.90;;;;;;5079303;28;20071;-50
2023/04/20 12:55:24;;;;;;;4.55;2.63;;;17.30;99.90;;;;;;5059327;28;20396;-52
2023/04/20 12:57:50;;;;;;;4.75;2.60;;;17.40;99.90;;;;;;5075021;28;20067;-50
2023/04/20 13:00:16;;;;;;;2.30;1.10;;;17.60;99.90;;;;;;5041114;28;20041;-50